Time;durP1;ratioP1;P1;durP2;ratioP2;P2;SDS_P1;SDS_P2;PMS_P1;PMS_P2;Temp;Humidity;BMP_temperature;BMP_pressure;BME280_temperature;BME280_humidity;BME280_pressure;Samples;Min_cycle;Max_cycle;Signal;HPM_P1;HPM_P2
2022/08/19 00:01:34;;;;;;;3.60;1.05;;;;;;;19.40;85.71;100104.84;4981687;28;20156;-72
2022/08/19 00:04:02;;;;;;;1.27;0.55;;;;;;;19.30;85.70;100090.22;5016677;28;20022;-76
2022/08/19 00:06:29;;;;;;;2.85;0.80;;;;;;;19.20;85.87;100085.00;5002948;28;20029;-75
2022/08/19 00:08:55;;;;;;;1.88;0.93;;;;;;;19.22;85.73;100093.81;5015154;28;20022;-73
2022/08/19 00:11:21;;;;;;;0.80;0.52;;;;;;;19.20;86.24;100090.56;4999855;28;20025;-75
2022/08/19 00:13:48;;;;;;;0.98;0.50;;;;;;;19.22;85.87;100088.28;4982860;28;20376;-74
2022/08/19 00:16:15;;;;;;;3.60;0.75;;;;;;;19.31;84.95;100094.59;5008856;28;20054;-74
2022/08/19 00:18:40;;;;;;;3.92;0.68;;;;;;;19.35;84.53;100098.34;5008835;28;20484;-74
2022/08/19 00:21:07;;;;;;;0.52;0.30;;;;;;;19.36;84.21;100094.41;5016119;28;20036;-74
2022/08/19 00:23:34;;;;;;;6.63;0.60;;;;;;;19.38;84.00;100101.56;4999148;28;20022;-74
2022/08/19 00:26:00;;;;;;;2.35;1.02;;;;;;;19.40;84.12;100099.28;5028875;28;20139;-73
2022/08/19 00:28:25;;;;;;;0.65;0.38;;;;;;;19.44;84.06;100101.06;5023843;28;20082;-74
2022/08/19 00:30:52;;;;;;;1.15;0.40;;;;;;;19.51;83.54;100112.44;5019399;28;20033;-74
2022/08/19 00:33:18;;;;;;;2.00;0.60;;;;;;;19.56;83.23;100105.88;5023642;28;20097;-74
2022/08/19 00:35:44;;;;;;;1.27;0.65;;;;;;;19.46;83.28;100096.00;5017214;28;20053;-76
2022/08/19 00:38:09;;;;;;;1.25;0.80;;;;;;;19.58;83.32;100111.94;5012474;28;20021;-73
2022/08/19 00:40:35;;;;;;;0.52;0.40;;;;;;;19.59;83.67;100108.00;5027725;28;20033;-76
2022/08/19 00:43:00;;;;;;;0.90;0.40;;;;;;;19.54;83.21;100105.44;5003939;28;20097;-74
2022/08/19 00:45:27;;;;;;;1.95;0.40;;;;;;;19.54;83.63;100105.44;5019401;28;20026;-74
2022/08/19 00:47:53;;;;;;;0.82;0.38;;;;;;;19.57;83.37;100110.31;5003516;28;20060;-74
2022/08/19 00:50:20;;;;;;;1.25;0.52;;;;;;;19.57;83.57;100115.84;5036832;28;20105;-76
2022/08/19 00:52:48;;;;;;;1.30;0.52;;;;;;;19.57;83.12;100110.31;5006051;28;20025;-75
2022/08/19 00:55:27;;;;;;;1.45;0.45;;;;;;;19.51;83.14;100098.59;5037648;28;20048;-74
2022/08/19 00:57:57;;;;;;;1.33;0.50;;;;;;;19.55;83.08;100101.47;5036500;28;20056;-74
2022/08/19 01:00:25;;;;;;;0.95;0.50;;;;;;;19.57;83.47;100104.75;5036548;28;20025;-73
2022/08/19 01:02:52;;;;;;;0.98;0.43;;;;;;;19.53;83.39;100098.25;5000016;28;20457;-73
2022/08/19 01:05:22;;;;;;;0.52;0.50;;;;;;;19.57;82.81;100104.75;5014799;28;20026;-73
2022/08/19 01:07:50;;;;;;;0.80;0.47;;;;;;;19.59;83.30;100113.53;5018529;28;20030;-75
2022/08/19 01:10:19;;;;;;;0.50;0.43;;;;;;;19.55;83.43;100112.56;5015602;28;20025;-74
2022/08/19 01:12:46;;;;;;;1.17;0.30;;;;;;;19.50;83.85;100101.69;5019259;28;20025;-73
2022/08/19 01:15:16;;;;;;;0.50;0.50;;;;;;;19.40;84.41;100105.66;5025469;28;20041;-74
2022/08/19 01:17:43;;;;;;;1.17;0.63;;;;;;;19.30;84.80;100095.75;5022680;28;20052;-73
2022/08/19 01:20:15;;;;;;;0.30;0.30;;;;;;;19.24;84.97;100091.53;5021173;28;20021;-74
2022/08/19 01:22:48;;;;;;;1.15;0.50;;;;;;;19.10;86.33;100102.00;5039729;28;20037;-74
2022/08/19 01:25:15;;;;;;;1.30;0.40;;;;;;;18.90;86.97;100093.28;5045827;28;20033;-74
2022/08/19 01:27:44;;;;;;;0.30;0.30;;;;;;;18.80;87.64;100088.88;5018971;28;20116;-73
2022/08/19 01:30:24;;;;;;;1.17;0.28;;;;;;;18.74;87.67;100098.50;5037432;28;20373;-74
2022/08/19 01:32:51;;;;;;;9.93;0.50;;;;;;;18.72;87.62;100092.50;5038350;28;20021;-74
2022/08/19 01:35:17;;;;;;;1.17;0.13;;;;;;;18.75;87.32;100093.78;5019592;28;20029;-74
2022/08/19 01:37:58;;;;;;;0.60;0.35;;;;;;;18.86;86.96;100106.16;5043326;28;20371;-73
2022/08/19 01:40:27;;;;;;;0.38;0.15;;;;;;;18.93;86.73;100103.69;5020305;28;20076;-75
2022/08/19 01:42:53;;;;;;;0.20;0.17;;;;;;;18.96;85.86;100108.59;5042903;28;20096;-74
2022/08/19 01:45:21;;;;;;;0.68;0.30;;;;;;;18.91;85.66;100100.47;5036195;28;20424;-75
2022/08/19 01:47:47;;;;;;;0.35;0.20;;;;;;;18.91;86.19;100106.00;5035893;28;20026;-75
2022/08/19 01:50:13;;;;;;;0.20;0.20;;;;;;;18.89;85.36;100107.47;5036801;28;20047;-75
2022/08/19 01:52:40;;;;;;;0.73;0.20;;;;;;;18.89;85.50;100104.69;5032045;28;20025;-74
2022/08/19 01:55:08;;;;;;;0.10;0.10;;;;;;;18.95;84.38;100101.44;5037837;28;20029;-73
2022/08/19 01:57:33;;;;;;;0.10;0.10;;;;;;;18.92;84.70;100101.25;5020360;28;20029;-74
2022/08/19 02:00:01;;;;;;;0.32;0.10;;;;;;;18.96;84.46;100103.03;5019446;28;20488;-74
2022/08/19 02:02:26;;;;;;;0.20;0.20;;;;;;;18.98;83.73;100102.72;5018036;28;20510;-73
2022/08/19 02:04:52;;;;;;;0.32;0.20;;;;;;;18.94;83.43;100112.81;5019250;28;20034;-74
2022/08/19 02:07:21;;;;;;;0.20;0.10;;;;;;;18.78;84.00;100113.34;5035069;28;20057;-75
2022/08/19 02:09:47;;;;;;;0.10;0.10;;;;;;;18.74;83.95;100103.25;5023762;28;20029;-75
2022/08/19 02:12:14;;;;;;;0.10;0.10;;;;;;;18.83;83.77;100109.56;5024893;28;20535;-73
2022/08/19 02:14:40;;;;;;;0.13;0.13;;;;;;;18.86;83.41;100120.00;5030583;28;20128;-73
2022/08/19 02:17:05;;;;;;;0.10;0.10;;;;;;;18.84;83.38;100113.97;5001853;28;20081;-75
2022/08/19 02:19:32;;;;;;;0.93;0.20;;;;;;;18.86;83.13;100113.63;5002415;28;20452;-74
2022/08/19 02:21:58;;;;;;;0.13;0.10;;;;;;;18.85;83.63;100118.34;5002184;28;20029;-74
2022/08/19 02:24:24;;;;;;;0.10;0.10;;;;;;;18.78;83.42;100107.00;5000971;28;20058;-75
2022/08/19 02:26:49;;;;;;;0.10;0.10;;;;;;;18.76;83.36;100109.25;5025485;28;20042;-73
2022/08/19 02:29:14;;;;;;;0.05;0.05;;;;;;;18.80;83.67;100122.09;5002977;28;20025;-76
2022/08/19 02:31:40;;;;;;;0.05;0.05;;;;;;;18.80;83.29;100121.31;5002627;28;20114;-75
2022/08/19 02:34:06;;;;;;;0.40;0.10;;;;;;;18.78;83.60;100113.34;4969213;28;20018;-74
2022/08/19 02:36:31;;;;;;;0.17;0.10;;;;;;;18.72;83.71;100113.81;5017263;28;20101;-74
2022/08/19 02:38:57;;;;;;;0.08;0.08;;;;;;;18.63;83.74;100120.19;5001166;28;20037;-73
2022/08/19 02:41:25;;;;;;;1.02;0.20;;;;;;;18.42;84.32;100105.41;4999099;28;20416;-74
2022/08/19 02:43:51;;;;;;;0.20;0.10;;;;;;;18.36;84.77;100115.00;4999173;28;20076;-74
2022/08/19 02:46:23;;;;;;;0.15;0.10;;;;;;;18.26;84.98;100119.72;5013793;28;20038;-75
2022/08/19 02:48:50;;;;;;;0.00;0.00;;;;;;;18.10;85.50;100107.50;5008846;28;20068;-73
2022/08/19 02:51:18;;;;;;;0.10;0.10;;;;;;;17.98;85.91;100107.34;5007064;28;20010;-74
2022/08/19 02:53:44;;;;;;;0.30;0.15;;;;;;;17.96;85.93;100114.00;5021707;28;20080;-74
2022/08/19 02:56:09;;;;;;;0.63;0.10;;;;;;;17.89;86.66;100113.63;5014759;28;20026;-74
2022/08/19 02:58:35;;;;;;;0.10;0.10;;;;;;;17.86;86.97;100114.28;5005328;28;20049;-74
2022/08/19 03:01:01;;;;;;;0.22;0.20;;;;;;;17.89;87.35;100110.88;5012759;28;20105;-73
2022/08/19 03:03:26;;;;;;;0.55;0.20;;;;;;;17.99;86.76;100126.38;5015824;28;20034;-74
2022/08/19 03:06:02;;;;;;;0.22;0.20;;;;;;;18.14;86.73;100139.72;5002848;28;20033;-74
2022/08/19 03:08:27;;;;;;;0.70;0.22;;;;;;;18.22;86.51;100135.34;5017089;28;20052;-73
2022/08/19 03:10:53;;;;;;;0.15;0.13;;;;;;;18.31;85.53;100143.66;5002081;28;20018;-73
2022/08/19 03:13:19;;;;;;;0.20;0.20;;;;;;;18.34;85.41;100133.88;4998110;28;20057;-74
2022/08/19 03:15:46;;;;;;;1.45;0.03;;;;;;;18.42;85.53;100138.63;5019299;28;20041;-75
2022/08/19 03:18:12;;;;;;;1.42;0.30;;;;;;;18.40;85.66;100136.19;5034815;28;20025;-73
2022/08/19 03:20:46;;;;;;;0.40;0.10;;;;;;;18.33;85.80;100135.03;5017286;28;20564;-73
2022/08/19 03:23:12;;;;;;;0.52;0.17;;;;;;;18.26;86.86;100133.56;5041115;28;20021;-73
2022/08/19 03:25:41;;;;;;;1.00;0.30;;;;;;;18.28;87.56;100144.28;5043880;28;20036;-74
2022/08/19 03:28:07;;;;;;;0.22;0.17;;;;;;;18.24;87.44;100141.38;5024465;28;20021;-74
2022/08/19 03:30:33;;;;;;;0.10;0.10;;;;;;;18.27;87.78;100149.03;5040349;28;20085;-74
2022/08/19 03:32:58;;;;;;;0.98;0.50;;;;;;;18.07;88.77;100144.13;5033677;28;20585;-75
2022/08/19 03:35:23;;;;;;;0.60;0.15;;;;;;;17.90;89.26;100150.44;5028011;28;20036;-74
2022/08/19 03:37:49;;;;;;;0.47;0.20;;;;;;;17.76;90.12;100145.03;5017871;28;20112;-73
2022/08/19 03:40:14;;;;;;;0.47;0.20;;;;;;;17.69;91.05;100152.97;5021978;28;20022;-73
2022/08/19 03:42:42;;;;;;;0.30;0.25;;;;;;;17.57;91.22;100146.09;5024597;28;20044;-74
2022/08/19 03:45:08;;;;;;;2.05;0.20;;;;;;;17.55;91.11;100151.13;5025114;28;20048;-74
2022/08/19 03:47:33;;;;;;;1.00;0.30;;;;;;;17.50;91.61;100151.25;5034883;28;20037;-73
2022/08/19 03:49:59;;;;;;;6.60;0.20;;;;;;;17.48;91.45;100156.31;5040297;28;20072;-75
2022/08/19 03:52:24;;;;;;;0.80;0.20;;;;;;;17.45;91.49;100149.47;5034992;28;20029;-73
2022/08/19 03:54:49;;;;;;;0.77;0.30;;;;;;;17.44;91.71;100144.25;5032853;28;20040;-74
2022/08/19 03:57:15;;;;;;;0.45;0.30;;;;;;;17.44;92.08;100149.78;5033864;28;20455;-73
2022/08/19 03:59:40;;;;;;;1.50;0.40;;;;;;;17.38;91.82;100149.09;5035770;28;20471;-73
2022/08/19 04:02:10;;;;;;;1.50;0.30;;;;;;;17.35;91.93;100154.47;5019832;28;20034;-74
2022/08/19 04:04:37;;;;;;;2.15;0.40;;;;;;;17.36;91.75;100165.19;5037525;28;20017;-73
2022/08/19 04:07:02;;;;;;;0.75;0.30;;;;;;;17.38;91.43;100165.69;5040038;28;20024;-75
2022/08/19 04:09:28;;;;;;;0.30;0.30;;;;;;;17.39;91.46;100158.19;5019410;28;20455;-73
2022/08/19 04:11:56;;;;;;;1.38;0.50;;;;;;;17.47;90.84;100174.03;5008650;28;20064;-74
2022/08/19 04:14:29;;;;;;;0.13;0.10;;;;;;;17.49;89.99;100163.44;4999188;28;20025;-74
2022/08/19 04:16:55;;;;;;;0.57;0.20;;;;;;;17.49;90.33;100157.91;5030837;28;20403;-74
2022/08/19 04:19:24;;;;;;;0.80;0.30;;;;;;;17.48;89.28;100161.84;5035323;28;20375;-74
2022/08/19 04:21:55;;;;;;;0.50;0.20;;;;;;;17.38;90.03;100162.13;5032435;28;20021;-75
2022/08/19 04:24:22;;;;;;;1.27;0.50;;;;;;;17.28;89.83;100158.47;5035482;28;20429;-72
2022/08/19 04:26:48;;;;;;;0.63;0.30;;;;;;;17.19;90.18;100154.88;5021455;28;20021;-73
2022/08/19 04:29:17;;;;;;;2.63;0.38;;;;;;;17.11;90.70;100163.91;5016247;28;20029;-74
2022/08/19 04:31:44;;;;;;;1.20;0.40;;;;;;;17.07;90.13;100162.94;5040967;28;20055;-73
2022/08/19 04:34:12;;;;;;;1.38;0.50;;;;;;;16.99;90.37;100163.69;5016138;28;20538;-74
2022/08/19 04:36:40;;;;;;;1.42;0.40;;;;;;;16.96;91.04;100164.31;5026943;28;20037;-72
2022/08/19 04:39:12;;;;;;;1.95;0.55;;;;;;;16.90;91.15;100158.91;5042173;28;20095;-74
2022/08/19 04:44:22;;;;;;;0.77;0.43;;;;;;;16.91;91.29;100170.81;5023628;28;20039;-74
2022/08/19 04:46:49;;;;;;;1.02;0.40;;;;;;;16.89;91.11;100179.41;5034419;28;20033;-76
2022/08/19 04:49:16;;;;;;;5.38;0.70;;;;;;;16.88;91.61;100175.00;5043728;28;20092;-74
2022/08/19 04:51:44;;;;;;;2.15;0.60;;;;;;;16.86;91.31;100174.44;5033257;28;20018;-73
2022/08/19 04:54:10;;;;;;;3.28;0.50;;;;;;;16.86;91.44;100176.41;5024665;28;20025;-74
2022/08/19 04:56:35;;;;;;;1.80;0.68;;;;;;;16.87;91.56;100170.59;5034373;28;20040;-75
2022/08/19 04:59:04;;;;;;;1.13;0.40;;;;;;;16.88;90.89;100180.53;5015442;28;20430;-74
2022/08/19 05:01:32;;;;;;;1.15;0.57;;;;;;;16.87;91.45;100187.16;5036099;28;20057;-75
2022/08/19 05:03:58;;;;;;;1.05;0.50;;;;;;;16.90;91.67;100186.53;5020213;28;20052;-74
2022/08/19 05:06:25;;;;;;;1.35;0.50;;;;;;;16.89;91.00;100184.09;5046930;28;20029;-74
2022/08/19 05:08:51;;;;;;;0.65;0.40;;;;;;;16.95;90.78;100180.06;5016642;28;20048;-73
2022/08/19 05:11:19;;;;;;;2.67;0.60;;;;;;;17.05;90.98;100195.56;5034675;28;20373;-73
2022/08/19 05:13:48;;;;;;;0.63;0.40;;;;;;;17.14;90.75;100206.69;5033240;28;20032;-73
2022/08/19 05:16:15;;;;;;;1.08;0.55;;;;;;;17.18;90.16;100202.97;5020949;28;20064;-74
2022/08/19 05:24:09;;;;;;;2.97;0.30;;;;;;;17.38;89.06;100212.66;5032011;28;20069;-73
2022/08/19 05:26:36;;;;;;;2.78;0.65;;;;;;;17.38;88.30;100204.38;5019088;28;20025;-73
2022/08/19 05:29:03;;;;;;;1.63;0.60;;;;;;;17.37;87.72;100218.53;5037723;28;20100;-73
2022/08/19 05:31:29;;;;;;;0.93;0.40;;;;;;;17.35;87.74;100223.56;5033507;28;20475;-74
2022/08/19 05:33:55;;;;;;;1.75;0.65;;;;;;;17.35;87.28;100221.59;5010894;28;20039;-75
2022/08/19 05:36:21;;;;;;;1.73;0.68;;;;;;;17.35;86.28;100226.31;5037235;28;20037;-73
2022/08/19 05:38:47;;;;;;;3.13;0.70;;;;;;;17.38;85.62;100228.44;5017549;28;20021;-74
2022/08/19 05:41:14;;;;;;;4.00;0.90;;;;;;;17.39;86.28;100224.53;5033770;28;20034;-75
2022/08/19 05:43:40;;;;;;;4.97;1.00;;;;;;;17.37;85.57;100221.28;5042537;28;20021;-74
2022/08/19 05:46:06;;;;;;;2.92;0.70;;;;;;;17.36;84.87;100233.47;5037100;28;20067;-74
2022/08/19 05:48:35;;;;;;;4.53;1.15;;;;;;;17.38;84.98;100233.97;5039470;28;20030;-76
2022/08/19 05:51:08;;;;;;;2.90;0.88;;;;;;;17.39;84.69;100225.38;5041883;28;20029;-75
2022/08/19 05:53:34;;;;;;;4.38;0.80;;;;;;;17.40;84.04;100221.44;5041361;28;20025;-73
2022/08/19 05:56:07;;;;;;;5.60;1.20;;;;;;;17.45;83.51;100226.06;5044484;28;20112;-75
2022/08/19 05:58:34;;;;;;;3.28;1.05;;;;;;;17.45;83.78;100221.34;5037155;28;20033;-74
2022/08/19 06:01:04;;;;;;;3.75;1.08;;;;;;;17.47;83.82;100214.69;5041585;28;20022;-74
2022/08/19 06:03:32;;;;;;;10.70;1.23;;;;;;;17.56;82.96;100230.16;5044663;28;20026;-74
2022/08/19 06:05:59;;;;;;;3.83;0.95;;;;;;;17.55;82.76;100228.53;5042775;28;20017;-74
2022/08/19 06:08:25;;;;;;;12.18;2.72;;;;;;;17.59;83.10;100228.72;5025403;28;20025;-75
2022/08/19 06:10:51;;;;;;;7.28;0.95;;;;;;;17.57;82.79;100226.25;5042672;28;20117;-75
2022/08/19 06:13:17;;;;;;;6.30;1.98;;;;;;;17.60;81.79;100231.16;5015620;28;20791;-74
2022/08/19 06:15:44;;;;;;;5.43;1.33;;;;;;;17.49;81.81;100227.03;5017818;28;20042;-74
2022/08/19 06:18:09;;;;;;;4.63;1.15;;;;;;;17.50;82.51;100241.69;5021025;28;20022;-74
2022/08/19 06:20:35;;;;;;;6.05;1.50;;;;;;;17.44;82.14;100229.94;5037437;28;20044;-75
2022/08/19 06:23:00;;;;;;;4.50;1.17;;;;;;;17.47;82.75;100236.78;5036959;28;20051;-72
2022/08/19 06:25:28;;;;;;;4.38;1.20;;;;;;;17.49;82.74;100235.31;5035037;28;20068;-74
2022/08/19 06:27:54;;;;;;;13.52;2.00;;;;;;;17.48;81.79;100238.41;5040742;28;20111;-75
2022/08/19 06:30:19;;;;;;;8.18;1.30;;;;;;;17.45;81.54;100237.09;5001673;28;20026;-73
2022/08/19 06:32:44;;;;;;;8.13;1.27;;;;;;;17.42;81.83;100246.84;5035240;28;20102;-74
2022/08/19 06:35:11;;;;;;;7.97;1.48;;;;;;;17.38;80.89;100239.50;5046979;28;20509;-74
2022/08/19 06:37:37;;;;;;;4.45;1.10;;;;;;;17.20;81.70;100210.94;5022460;28;20017;-74
2022/08/19 06:40:03;;;;;;;9.27;1.30;;;;;;;17.36;81.66;100239.00;5013545;28;20117;-75
2022/08/19 06:42:29;;;;;;;11.25;1.67;;;;;;;17.30;81.21;100234.72;5036400;28;20459;-74
2022/08/19 06:44:54;;;;;;;7.70;1.50;;;;;;;17.32;81.32;100240.75;5028114;28;20025;-74
2022/08/19 06:47:21;;;;;;;7.10;1.20;;;;;;;17.36;81.43;100227.94;5019874;28;20060;-74
2022/08/19 06:49:46;;;;;;;5.75;1.30;;;;;;;17.55;81.31;100247.91;5033593;28;20037;-75
2022/08/19 06:52:12;;;;;;;6.07;1.20;;;;;;;17.66;80.56;100247.63;5033118;28;20105;-75
2022/08/19 06:54:39;;;;;;;5.50;2.05;;;;;;;17.85;80.11;100248.19;5038728;28;20026;-74
2022/08/19 06:57:06;;;;;;;7.40;1.25;;;;;;;17.95;78.76;100258.97;5033994;28;20082;-75
2022/08/19 06:59:32;;;;;;;7.40;1.33;;;;;;;18.02;79.02;100257.69;5000544;28;20025;-73
2022/08/19 07:02:05;;;;;;;9.90;1.48;;;;;;;18.14;78.38;100266.22;5026356;28;20487;-73
2022/08/19 07:04:32;;;;;;;20.58;1.90;;;;;;;18.29;78.30;100262.97;5016041;28;20037;-74
2022/08/19 07:07:09;;;;;;;4.93;1.20;;;;;;;18.40;76.67;100284.81;5015079;28;20090;-73
2022/08/19 07:09:37;;;;;;;9.73;1.60;;;;;;;18.59;76.21;100274.28;5035865;28;20101;-74
2022/08/19 07:12:04;;;;;;;13.00;1.60;;;;;;;18.71;74.89;100278.38;5033303;28;20040;-74
2022/08/19 07:14:29;;;;;;;9.05;1.58;;;;;;;18.63;75.18;100280.81;5036283;28;20026;-74
2022/08/19 07:16:56;;;;;;;10.45;1.38;;;;;;;18.66;75.34;100277.41;5018210;28;20052;-73
2022/08/19 07:19:26;;;;;;;7.28;1.20;;;;;;;18.84;75.33;100282.94;5022108;28;20033;-74
2022/08/19 07:21:53;;;;;;;7.00;1.08;;;;;;;19.08;73.83;100284.44;5010742;28;20081;-74
2022/08/19 07:24:23;;;;;;;7.95;1.50;;;;;;;19.24;72.02;100271.69;4994999;28;20049;-76
2022/08/19 07:26:48;;;;;;;6.70;1.60;;;;;;;19.32;70.77;100279.19;5000437;28;20025;-74
2022/08/19 07:29:14;;;;;;;5.47;1.20;;;;;;;19.25;68.83;100280.84;5016804;28;20026;-74
2022/08/19 07:31:40;;;;;;;11.50;1.83;;;;;;;19.06;67.08;100270.09;5015767;28;20105;-75
2022/08/19 07:34:07;;;;;;;8.38;1.60;;;;;;;19.15;66.51;100287.53;5024631;28;20116;-74
2022/08/19 07:36:36;;;;;;;5.35;1.33;;;;;;;19.21;66.39;100286.22;5020392;28;20022;-74
2022/08/19 07:39:07;;;;;;;17.75;1.85;;;;;;;19.44;64.54;100286.03;4998327;28;20029;-75
2022/08/19 07:41:35;;;;;;;13.32;1.60;;;;;;;19.70;64.32;100292.31;5025121;28;20030;-75
2022/08/19 07:44:03;;;;;;;14.50;2.03;;;;;;;19.87;63.54;100288.72;5015280;28;20034;-75
2022/08/19 07:46:32;;;;;;;5.53;1.38;;;;;;;20.19;63.00;100297.56;5013807;28;20029;-75
2022/08/19 07:48:58;;;;;;;4.03;1.35;;;;;;;20.58;61.57;100297.50;5010631;28;20030;-74
2022/08/19 07:51:24;;;;;;;5.05;0.90;;;;;;;20.85;60.51;100292.56;4999326;28;20464;-74
2022/08/19 07:53:52;;;;;;;7.22;1.42;;;;;;;21.13;59.15;100290.06;5014138;28;20076;-75
2022/08/19 07:56:19;;;;;;;4.53;1.25;;;;;;;21.73;57.81;100296.19;5018581;28;20030;-73
2022/08/19 07:58:47;;;;;;;5.28;1.20;;;;;;;22.03;54.87;100301.56;5012654;28;20022;-74
2022/08/19 08:01:16;;;;;;;5.18;1.10;;;;;;;22.10;55.05;100293.44;5017407;28;20083;-75
2022/08/19 08:09:20;;;;;;;5.45;1.27;;;;;;;22.88;50.87;100315.00;5022033;28;20041;-76
2022/08/19 08:11:52;;;;;;;4.75;1.30;;;;;;;23.21;50.83;100314.81;4986370;28;20120;-74
2022/08/19 08:14:31;;;;;;;3.80;1.13;;;;;;;23.44;48.71;100320.63;4995424;28;20085;-73
2022/08/19 08:16:57;;;;;;;8.95;1.80;;;;;;;23.48;47.47;100315.13;5010365;28;20058;-74
2022/08/19 08:19:25;;;;;;;5.47;1.40;;;;;;;23.69;47.44;100324.09;5045591;28;20029;-74
2022/08/19 08:21:51;;;;;;;2.80;1.05;;;;;;;23.89;47.59;100324.25;5032307;28;20021;-73
2022/08/19 08:24:20;;;;;;;13.07;1.60;;;;;;;23.74;45.13;100334.19;5033399;28;20035;-75
2022/08/19 08:26:46;;;;;;;8.80;1.50;;;;;;;23.40;45.19;100333.66;5015757;28;20045;-72
2022/08/19 08:29:12;;;;;;;4.32;0.98;;;;;;;23.12;46.11;100331.69;5017406;28;20306;-72
2022/08/19 08:31:43;;;;;;;4.70;1.27;;;;;;;23.03;45.83;100339.34;5035658;28;20048;-74
2022/08/19 08:34:10;;;;;;;10.45;2.03;;;;;;;22.89;45.53;100328.56;5017890;28;20033;-74
2022/08/19 08:36:42;;;;;;;4.80;1.40;;;;;;;22.94;45.62;100331.13;5017822;28;20021;-74
2022/08/19 08:39:20;;;;;;;6.82;1.15;;;;;;;22.78;45.56;100339.41;5047506;28;20067;-74
2022/08/19 08:41:52;;;;;;;7.38;1.63;;;;;;;23.00;45.34;100338.06;5035217;28;20061;-74
2022/08/19 08:44:22;;;;;;;6.25;1.30;;;;;;;23.24;43.74;100343.97;5024506;28;20032;-74
2022/08/19 08:47:00;;;;;;;7.40;1.60;;;;;;;23.61;42.00;100353.00;5026734;28;20025;-73
2022/08/19 08:49:41;;;;;;;6.55;1.48;;;;;;;23.85;41.72;100357.63;5029465;28;20021;-74
2022/08/19 08:52:15;;;;;;;5.00;1.45;;;;;;;24.49;39.78;100357.66;5034642;28;20017;-74
2022/08/19 08:54:44;;;;;;;2.97;0.88;;;;;;;24.82;38.85;100347.25;5035913;28;20033;-74
2022/08/19 08:57:15;;;;;;;7.95;0.98;;;;;;;24.87;38.26;100356.19;5016351;28;20075;-73
2022/08/19 08:59:43;;;;;;;7.90;1.55;;;;;;;24.98;37.37;100350.81;5017169;28;20250;-75
2022/08/19 09:02:09;;;;;;;5.10;1.52;;;;;;;25.42;36.51;100358.16;5044042;28;20017;-75
2022/08/19 09:04:38;;;;;;;4.13;1.20;;;;;;;25.52;35.18;100356.75;4999355;28;20038;-75
2022/08/19 09:07:07;;;;;;;5.72;1.10;;;;;;;25.06;36.28;100357.38;5033624;28;20036;-74
2022/08/19 09:09:42;;;;;;;4.63;1.50;;;;;;;25.11;36.62;100354.28;5039715;28;20029;-74
2022/08/19 09:12:19;;;;;;;8.13;1.80;;;;;;;25.94;34.84;100356.75;5035393;28;20018;-75
2022/08/19 09:14:56;;;;;;;3.97;1.45;;;;;;;27.02;34.72;100354.88;5031904;28;20021;-75
2022/08/19 09:17:30;;;;;;;8.10;2.25;;;;;;;27.66;31.59;100352.06;5013388;28;20117;-74
2022/08/19 09:20:06;;;;;;;9.07;1.52;;;;;;;27.08;31.46;100355.38;5012831;28;20026;-74
2022/08/19 09:22:33;;;;;;;6.40;1.65;;;;;;;26.88;31.75;100357.50;5012202;28;20064;-74
2022/08/19 09:24:59;;;;;;;5.38;1.60;;;;;;;27.08;31.55;100366.59;5012575;28;20087;-75
2022/08/19 09:27:26;;;;;;;5.63;1.52;;;;;;;27.88;30.03;100363.53;5011240;28;20108;-75
2022/08/19 09:29:53;;;;;;;4.20;1.30;;;;;;;28.27;30.00;100367.91;5012042;28;20033;-77
2022/08/19 09:32:20;;;;;;;5.18;1.40;;;;;;;28.67;29.19;100361.44;5004459;28;20113;-74
2022/08/19 09:34:45;;;;;;;6.60;1.30;;;;;;;29.45;26.74;100370.69;4992452;28;20034;-75
2022/08/19 09:37:13;;;;;;;5.00;1.35;;;;;;;28.93;27.70;100367.22;5018062;28;20499;-75
2022/08/19 09:39:40;;;;;;;12.77;1.88;;;;;;;28.19;27.32;100375.50;5017092;28;20800;-75
2022/08/19 09:42:11;;;;;;;5.07;1.20;;;;;;;27.93;28.32;100382.03;5014281;28;20033;-74
2022/08/19 09:44:40;;;;;;;6.15;1.60;;;;;;;27.76;28.12;100378.66;5015554;28;20026;-75
2022/08/19 09:47:06;;;;;;;11.82;1.65;;;;;;;27.98;28.14;100371.28;4998434;28;20038;-73
2022/08/19 09:49:33;;;;;;;15.98;1.50;;;;;;;28.29;27.98;100371.97;5023280;28;20160;-75
2022/08/19 09:51:59;;;;;;;11.30;1.50;;;;;;;28.10;27.52;100369.41;4998894;28;20030;-74
2022/08/19 09:54:25;;;;;;;13.55;1.90;;;;;;;27.97;27.57;100380.09;5001916;28;20037;-74
2022/08/19 09:56:52;;;;;;;5.95;1.35;;;;;;;28.29;27.26;100394.47;5025167;28;20133;-73
2022/08/19 09:59:17;;;;;;;7.20;1.48;;;;;;;29.71;25.02;100385.69;5010062;28;20018;-75
2022/08/19 10:01:43;;;;;;;5.85;1.08;;;;;;;31.48;24.16;100381.56;5023990;28;20432;-73
2022/08/19 10:04:08;;;;;;;7.40;1.48;;;;;;;32.34;23.99;100385.06;5004553;28;20167;-73
2022/08/19 10:06:37;;;;;;;3.70;1.15;;;;;;;35.61;19.77;100387.16;5000383;28;20088;-73
2022/08/19 10:09:06;;;;;;;4.50;1.20;;;;;;;38.88;18.00;100384.78;5020186;28;20037;-74
2022/08/19 10:11:32;;;;;;;6.78;1.25;;;;;;;41.46;15.66;100394.66;5010911;28;20164;-74
2022/08/19 10:13:59;;;;;;;3.08;1.10;;;;;;;43.59;14.10;100385.38;5024465;28;20029;-74
2022/08/19 10:16:25;;;;;;;5.22;1.42;;;;;;;44.75;12.13;100384.44;5015863;28;20054;-73
2022/08/19 10:18:53;;;;;;;5.35;1.52;;;;;;;45.43;11.57;100390.91;5015590;28;20041;-75
2022/08/19 10:21:25;;;;;;;6.82;1.65;;;;;;;43.40;10.95;100372.47;4981034;28;20051;-72
2022/08/19 10:23:53;;;;;;;6.00;1.30;;;;;;;42.10;12.64;100373.53;5008061;28;20057;-75
2022/08/19 10:26:25;;;;;;;7.70;1.20;;;;;;;42.98;11.59;100376.38;5021362;28;20026;-75
2022/08/19 10:28:51;;;;;;;5.72;1.20;;;;;;;44.19;11.43;100388.13;5014035;28;20030;-74
2022/08/19 10:31:24;;;;;;;11.63;1.35;;;;;;;44.13;10.70;100386.47;5015125;28;20390;-75
2022/08/19 10:33:57;;;;;;;4.38;1.17;;;;;;;44.02;11.91;100384.22;5015206;28;20025;-74
2022/08/19 10:36:24;;;;;;;5.85;1.25;;;;;;;45.55;10.89;100383.94;4996153;28;20042;-75
2022/08/19 10:38:52;;;;;;;6.15;1.60;;;;;;;44.65;9.89;100397.41;5014653;28;20025;-74
2022/08/19 10:41:22;;;;;;;3.78;1.20;;;;;;;43.96;10.61;100389.09;4996060;28;20453;-74
2022/08/19 10:43:54;;;;;;;4.60;1.10;;;;;;;45.28;10.26;100393.91;5013853;28;20032;-75
2022/08/19 10:46:21;;;;;;;4.50;1.20;;;;;;;45.45;10.04;100383.31;5023943;28;20025;-74
2022/08/19 10:48:47;;;;;;;6.50;1.48;;;;;;;46.07;8.77;100385.09;5022309;28;20045;-74
2022/08/19 10:53:57;;;;;;;5.43;1.45;;;;;;;47.71;9.50;100383.44;5001372;28;20044;-75
2022/08/19 10:59:07;;;;;;;4.65;1.70;;;;;;;47.35;8.05;100368.72;5014644;28;20049;-74
2022/08/19 11:01:34;;;;;;;5.10;1.35;;;;;;;45.91;9.19;100366.34;4996629;28;20026;-75
2022/08/19 11:04:04;;;;;;;10.73;1.70;;;;;;;44.83;9.50;100379.78;5013536;28;20076;-75
2022/08/19 11:06:32;;;;;;;5.10;1.50;;;;;;;44.79;9.80;100379.25;4996297;28;20037;-74
2022/08/19 11:08:57;;;;;;;8.65;1.50;;;;;;;45.72;8.71;100378.25;5015048;28;20022;-75
2022/08/19 11:11:23;;;;;;;7.03;1.45;;;;;;;45.48;9.12;100382.28;5014607;28;20500;-74
2022/08/19 11:13:49;;;;;;;7.43;1.48;;;;;;;44.72;9.79;100379.69;4993578;28;20480;-74
2022/08/19 11:16:21;;;;;;;4.47;1.60;;;;;;;46.30;9.18;100392.59;5024631;28;20052;-76
2022/08/19 11:18:51;;;;;;;8.38;1.15;;;;;;;47.38;7.98;100379.25;5016519;28;20438;-74
2022/08/19 11:21:21;;;;;;;9.18;1.63;;;;;;;48.09;8.61;100382.31;5034869;28;20085;-74
2022/08/19 11:23:49;;;;;;;4.75;1.33;;;;;;;49.34;7.83;100382.50;5034414;28;20093;-74
2022/08/19 11:26:16;;;;;;;5.68;1.40;;;;;;;49.22;7.19;100387.63;5022802;28;20018;-75
2022/08/19 11:28:42;;;;;;;3.80;1.13;;;;;;;48.76;7.88;100381.25;5023791;28;20022;-74
2022/08/19 11:31:17;;;;;;;2.08;0.73;;;;;;;50.49;7.56;100369.94;5034016;28;20060;-74
2022/08/19 11:33:43;;;;;;;4.15;1.30;;;;;;;52.91;6.91;100391.56;5014714;28;20017;-74
2022/08/19 11:36:09;;;;;;;6.32;1.20;;;;;;;53.96;5.73;100379.06;5027472;28;20046;-75
2022/08/19 11:38:35;;;;;;;3.40;1.35;;;;;;;52.27;5.72;100375.97;5028187;28;20395;-75
2022/08/19 11:41:05;;;;;;;7.28;1.35;;;;;;;50.85;6.17;100361.00;5015066;28;20040;-75
2022/08/19 11:43:31;;;;;;;6.32;1.10;;;;;;;48.08;7.51;100369.94;5030525;28;20475;-76
2022/08/19 11:45:58;;;;;;;6.22;1.40;;;;;;;46.90;7.88;100365.72;5016131;28;20498;-75